PWSweather.com
Personal Weather Stations
Station Observations
EDDERTON
Rossshire, EddertonGB IV191LA

RossshireEddertonGB IV191LA

Lat: 57.838, Lon: -4.176

Elevation: 60

Station Type: Davis Vantage PRO2 Wireless With Solar Sensor

http://www.ardmore-lodge.com

Latest ConditionsUpdated 7:00:23 PM GMT Wednesday, Apr 16, 2014
Currently Today's Max Today's Min Today's Average
Temperature 51.6°F10.9°C 56.1°F13.4°C 47.2°F8.4°C 52.3°F11.3°C
Dew Point 41.8°F5.4°C 43.3°F6.3°C 39.1°F3.9°C 41.2°F5.1°C
Winds 10.1 mph SW16.3 kmh SW 16.7 mph S26.9 kmh S - 5.7 mph 9.2 kmh
Wind Gusts 13.0 mph20.9 kmh 25.0 mph40.2 kmh - -
Humidity 69% 78% 53% 66%
Pressure 29.91 in1012.9 mb 30.12 in1020.0 mb 29.89 in1012.2 mb -
Hour Temp Dew Point Humidity Winds Wind Gusts Pressure Precip Precip Rate Daily Precip Total
07:00 PM 51.6°F10.9°C 41.8°F5.4°C 69% 10.1 mph SW16.3 kmh SW 13.0 mph20.9 kmh 29.91 in1012.9 mb 0.00 in0.0 mm 0.00 in/hr0.0 mm/hr 0.00 in0.0 mm
06:45 PM 51.9°F11.1°C 41.7°F5.4°C 68% 9.7 mph SW15.6 kmh SW 15.0 mph24.1 kmh 29.90 in1012.5 mb 0.00 in0.0 mm 0.00 in/hr0.0 mm/hr 0.00 in0.0 mm
06:30 PM 52.2°F11.2°C 41.6°F5.3°C 67% 13.4 mph SW21.6 kmh SW 19.0 mph30.6 kmh 29.89 in1012.2 mb 0.00 in0.0 mm 0.00 in/hr0.0 mm/hr 0.00 in0.0 mm
06:15 PM 52.3°F11.3°C 41.3°F5.2°C 66% 9.8 mph SW15.8 kmh SW 21.0 mph33.8 kmh 29.90 in1012.5 mb 0.00 in0.0 mm 0.00 in/hr0.0 mm/hr 0.00 in0.0 mm
06:00 PM 52.7°F11.5°C 40.9°F4.9°C 64% 8.9 mph SW14.3 kmh SW 13.0 mph20.9 kmh 29.91 in1012.9 mb 0.00 in0.0 mm 0.00 in/hr0.0 mm/hr 0.00 in0.0 mm
05:45 PM 53.2°F11.8°C 40.5°F4.7°C 62% 1.1 mph WNW1.8 kmh WNW 6.0 mph9.7 kmh 29.91 in1012.9 mb 0.00 in0.0 mm 0.00 in/hr0.0 mm/hr 0.00 in0.0 mm
05:30 PM 53.5°F11.9°C 40.8°F4.9°C 62% 3.0 mph SSW4.8 kmh SSW 4.0 mph6.4 kmh 29.92 in1013.2 mb 0.00 in0.0 mm 0.00 in/hr0.0 mm/hr 0.00 in0.0 mm
05:15 PM 54.1°F12.3°C 40.0°F4.4°C 59% 3.2 mph S5.1 kmh S 5.0 mph8.0 kmh 29.93 in1013.5 mb 0.00 in0.0 mm 0.00 in/hr0.0 mm/hr 0.00 in0.0 mm
05:00 PM 54.4°F12.4°C 39.4°F4.1°C 57% 3.4 mph SSW5.5 kmh SSW 6.0 mph9.7 kmh 29.93 in1013.5 mb 0.00 in0.0 mm 0.00 in/hr0.0 mm/hr 0.00 in0.0 mm
04:45 PM 54.6°F12.6°C 40.1°F4.5°C 58% 4.1 mph SSW6.6 kmh SSW 11.0 mph17.7 kmh 29.93 in1013.5 mb 0.00 in0.0 mm 0.00 in/hr0.0 mm/hr 0.00 in0.0 mm
04:30 PM 55.0°F12.8°C 39.6°F4.2°C 56% 10.3 mph SW16.6 kmh SW 16.0 mph25.7 kmh 29.94 in1013.9 mb 0.00 in0.0 mm 0.00 in/hr0.0 mm/hr 0.00 in0.0 mm
04:15 PM 55.5°F13.1°C 39.1°F3.9°C 54% 8.2 mph SW13.2 kmh SW 11.0 mph17.7 kmh 29.95 in1014.2 mb 0.00 in0.0 mm 0.00 in/hr0.0 mm/hr 0.00 in0.0 mm
04:00 PM 55.9°F13.3°C 39.5°F4.2°C 54% 3.7 mph WSW6.0 kmh WSW 6.0 mph9.7 kmh 29.95 in1014.2 mb 0.00 in0.0 mm 0.00 in/hr0.0 mm/hr 0.00 in0.0 mm
03:45 PM 56.1°F13.4°C 39.2°F4.0°C 53% 12.6 mph SW20.3 kmh SW 17.0 mph27.4 kmh 29.95 in1014.2 mb 0.00 in0.0 mm 0.00 in/hr0.0 mm/hr 0.00 in0.0 mm
03:30 PM 56.0°F13.3°C 40.1°F4.5°C 55% 6.2 mph WSW10.0 kmh WSW 10.0 mph16.1 kmh 29.95 in1014.2 mb 0.00 in0.0 mm 0.00 in/hr0.0 mm/hr 0.00 in0.0 mm
03:15 PM 55.9°F13.3°C 40.4°F4.7°C 56% 8.0 mph SSW12.9 kmh SSW 10.0 mph16.1 kmh 29.96 in1014.6 mb 0.00 in0.0 mm 0.00 in/hr0.0 mm/hr 0.00 in0.0 mm
03:00 PM 55.7°F13.2°C 40.7°F4.8°C 57% 4.2 mph SW6.8 kmh SW 6.0 mph9.7 kmh 29.97 in1014.9 mb 0.00 in0.0 mm 0.00 in/hr0.0 mm/hr 0.00 in0.0 mm
02:45 PM 55.6°F13.1°C 40.1°F4.5°C 56% 6.8 mph SW10.9 kmh SW 10.0 mph16.1 kmh 29.97 in1014.9 mb 0.00 in0.0 mm 0.00 in/hr0.0 mm/hr 0.00 in0.0 mm
02:30 PM 55.6°F13.1°C 39.7°F4.3°C 55% 7.8 mph SW12.6 kmh SW 10.0 mph16.1 kmh 29.98 in1015.2 mb 0.00 in0.0 mm 0.00 in/hr0.0 mm/hr 0.00 in0.0 mm
02:15 PM 55.6°F13.1°C 41.0°F5.0°C 58% 5.7 mph SW9.2 kmh SW 10.0 mph16.1 kmh 29.99 in1015.6 mb 0.00 in0.0 mm 0.00 in/hr0.0 mm/hr 0.00 in0.0 mm
02:00 PM 55.3°F12.9°C 41.7°F5.4°C 60% 3.6 mph SW5.8 kmh SW 5.0 mph8.0 kmh 30.00 in1015.9 mb 0.00 in0.0 mm 0.00 in/hr0.0 mm/hr 0.00 in0.0 mm
01:45 PM 55.0°F12.8°C 40.9°F4.9°C 59% 0.8 mph SW1.3 kmh SW 2.0 mph3.2 kmh 30.01 in1016.3 mb 0.00 in0.0 mm 0.00 in/hr0.0 mm/hr 0.00 in0.0 mm
01:30 PM 54.7°F12.6°C 39.8°F4.3°C 57% 5.0 mph SW8.0 kmh SW 6.0 mph9.7 kmh 30.01 in1016.3 mb 0.00 in0.0 mm 0.00 in/hr0.0 mm/hr 0.00 in0.0 mm
01:15 PM 54.5°F12.5°C 40.5°F4.7°C 59% 5.2 mph SW8.4 kmh SW 6.0 mph9.7 kmh 30.02 in1016.6 mb 0.00 in0.0 mm 0.00 in/hr0.0 mm/hr 0.00 in0.0 mm
01:00 PM 54.4°F12.4°C 40.0°F4.4°C 58% 8.5 mph WSW13.7 kmh WSW 15.0 mph24.1 kmh 30.03 in1016.9 mb 0.00 in0.0 mm 0.00 in/hr0.0 mm/hr 0.00 in0.0 mm
12:45 PM 54.6°F12.6°C 41.8°F5.4°C 62% 4.2 mph WSW6.8 kmh WSW 7.0 mph11.3 kmh 30.04 in1017.3 mb 0.00 in0.0 mm 0.00 in/hr0.0 mm/hr 0.00 in0.0 mm
12:30 PM 54.4°F12.4°C 40.8°F4.9°C 60% 3.1 mph W5.0 kmh W 6.0 mph9.7 kmh 30.04 in1017.3 mb 0.00 in0.0 mm 0.00 in/hr0.0 mm/hr 0.00 in0.0 mm
12:15 PM 53.9°F12.2°C 42.0°F5.6°C 64% 2.9 mph WSW4.7 kmh WSW 7.0 mph11.3 kmh 30.04 in1017.3 mb 0.00 in0.0 mm 0.00 in/hr0.0 mm/hr 0.00 in0.0 mm
12:00 PM 52.5°F11.4°C 40.7°F4.8°C 64% 4.2 mph WSW6.8 kmh WSW 6.0 mph9.7 kmh 30.04 in1017.3 mb 0.00 in0.0 mm 0.00 in/hr0.0 mm/hr 0.00 in0.0 mm
11:45 AM 51.9°F11.1°C 40.1°F4.5°C 64% 2.7 mph WSW4.3 kmh WSW 6.0 mph9.7 kmh 30.05 in1017.6 mb 0.00 in0.0 mm 0.00 in/hr0.0 mm/hr 0.00 in0.0 mm
11:30 AM 51.8°F11.0°C 39.6°F4.2°C 63% 1.9 mph WSW3.1 kmh WSW 4.0 mph6.4 kmh 30.04 in1017.3 mb 0.00 in0.0 mm 0.00 in/hr0.0 mm/hr 0.00 in0.0 mm
11:15 AM 51.5°F10.8°C 40.1°F4.5°C 65% 2.8 mph SW4.5 kmh SW 4.0 mph6.4 kmh 30.05 in1017.6 mb 0.00 in0.0 mm 0.00 in/hr0.0 mm/hr 0.00 in0.0 mm
11:00 AM 51.3°F10.7°C 40.3°F4.6°C 66% 2.3 mph W3.7 kmh W 5.0 mph8.0 kmh 30.06 in1017.9 mb 0.00 in0.0 mm 0.00 in/hr0.0 mm/hr 0.00 in0.0 mm
10:45 AM 51.1°F10.6°C 40.1°F4.5°C 66% 11.2 mph SSW18.0 kmh SSW 17.0 mph27.4 kmh 30.05 in1017.6 mb 0.00 in0.0 mm 0.00 in/hr0.0 mm/hr 0.00 in0.0 mm
10:30 AM 50.8°F10.4°C 40.2°F4.6°C 67% 10.2 mph SW16.4 kmh SW 15.0 mph24.1 kmh 30.05 in1017.6 mb 0.00 in0.0 mm 0.00 in/hr0.0 mm/hr 0.00 in0.0 mm
10:15 AM 50.7°F10.4°C 40.1°F4.5°C 67% 15.1 mph SSW24.3 kmh SSW 15.0 mph24.1 kmh 30.05 in1017.6 mb 0.00 in0.0 mm 0.00 in/hr0.0 mm/hr 0.00 in0.0 mm
10:00 AM 50.6°F10.3°C 40.4°F4.7°C 68% 10.8 mph SW17.4 kmh SW 17.0 mph27.4 kmh 30.05 in1017.6 mb 0.00 in0.0 mm 0.00 in/hr0.0 mm/hr 0.00 in0.0 mm
09:45 AM 50.5°F10.3°C 40.0°F4.4°C 67% 16.7 mph S26.9 kmh S 25.0 mph40.2 kmh 30.04 in1017.3 mb 0.00 in0.0 mm 0.00 in/hr0.0 mm/hr 0.00 in0.0 mm
09:30 AM 50.5°F10.3°C 40.3°F4.6°C 68% 15.1 mph SSW24.3 kmh SSW 22.0 mph35.4 kmh 30.04 in1017.3 mb 0.00 in0.0 mm 0.00 in/hr0.0 mm/hr 0.00 in0.0 mm
09:15 AM 50.5°F10.3°C 40.7°F4.8°C 69% 8.6 mph SW13.8 kmh SW 12.0 mph19.3 kmh 30.05 in1017.6 mb 0.00 in0.0 mm 0.00 in/hr0.0 mm/hr 0.00 in0.0 mm
09:00 AM 50.5°F10.3°C 41.1°F5.1°C 70% 3.8 mph WSW6.1 kmh WSW 6.0 mph9.7 kmh 30.05 in1017.6 mb 0.00 in0.0 mm 0.00 in/hr0.0 mm/hr 0.00 in0.0 mm
08:45 AM 50.5°F10.3°C 41.4°F5.2°C 71% Calm Calm 1.0 mph1.6 kmh 30.06 in1017.9 mb 0.00 in0.0 mm 0.00 in/hr0.0 mm/hr 0.00 in0.0 mm
08:30 AM 50.6°F10.3°C 41.2°F5.1°C 70% 0.7 mph NW1.1 kmh NW 1.0 mph1.6 kmh 30.06 in1017.9 mb 0.00 in0.0 mm 0.00 in/hr0.0 mm/hr 0.00 in0.0 mm
08:15 AM 50.9°F10.5°C 41.1°F5.1°C 69% 1.4 mph N2.3 kmh N 2.0 mph3.2 kmh 30.06 in1017.9 mb 0.00 in0.0 mm 0.00 in/hr0.0 mm/hr 0.00 in0.0 mm
08:00 AM 51.0°F10.6°C 41.2°F5.1°C 69% 12.0 mph SSW19.3 kmh SSW 19.0 mph30.6 kmh 30.07 in1018.3 mb 0.00 in0.0 mm 0.00 in/hr0.0 mm/hr 0.00 in0.0 mm
07:45 AM 50.7°F10.4°C 42.3°F5.7°C 73% 1.8 mph SW2.9 kmh SW 9.0 mph14.5 kmh 30.07 in1018.3 mb 0.00 in0.0 mm 0.00 in/hr0.0 mm/hr 0.00 in0.0 mm
07:30 AM 50.8°F10.4°C 41.7°F5.4°C 71% 2.0 mph SW3.2 kmh SW 5.0 mph8.0 kmh 30.07 in1018.3 mb 0.00 in0.0 mm 0.00 in/hr0.0 mm/hr 0.00 in0.0 mm
07:15 AM 50.8°F10.4°C 41.7°F5.4°C 71% 3.8 mph WSW6.1 kmh WSW 6.0 mph9.7 kmh 30.08 in1018.6 mb 0.00 in0.0 mm 0.00 in/hr0.0 mm/hr 0.00 in0.0 mm
07:00 AM 50.9°F10.5°C 41.8°F5.4°C 71% 7.7 mph WSW12.4 kmh WSW 12.0 mph19.3 kmh 30.08 in1018.6 mb 0.00 in0.0 mm 0.00 in/hr0.0 mm/hr 0.00 in0.0 mm
06:45 AM 51.0°F10.6°C 41.9°F5.5°C 71% 3.9 mph WSW6.3 kmh WSW 9.0 mph14.5 kmh 30.08 in1018.6 mb 0.00 in0.0 mm 0.00 in/hr0.0 mm/hr 0.00 in0.0 mm
06:30 AM 51.4°F10.8°C 41.9°F5.5°C 70% 6.7 mph SW10.8 kmh SW 13.0 mph20.9 kmh 30.08 in1018.6 mb 0.00 in0.0 mm 0.00 in/hr0.0 mm/hr 0.00 in0.0 mm
06:15 AM 51.4°F10.8°C 41.6°F5.3°C 69% 4.1 mph WSW6.6 kmh WSW 4.0 mph6.4 kmh 30.08 in1018.6 mb 0.00 in0.0 mm 0.00 in/hr0.0 mm/hr 0.00 in0.0 mm
06:00 AM 50.7°F10.4°C 42.4°F5.8°C 73% 0.9 mph NE1.4 kmh NE 2.0 mph3.2 kmh 30.08 in1018.6 mb 0.00 in0.0 mm 0.00 in/hr0.0 mm/hr 0.00 in0.0 mm
05:45 AM 51.1°F10.6°C 42.4°F5.8°C 72% 1.9 mph NE3.1 kmh NE 3.0 mph4.8 kmh 30.07 in1018.3 mb 0.00 in0.0 mm 0.00 in/hr0.0 mm/hr 0.00 in0.0 mm
05:30 AM 51.0°F10.6°C 42.7°F5.9°C 73% 6.8 mph NE10.9 kmh NE 10.0 mph16.1 kmh 30.06 in1017.9 mb 0.00 in0.0 mm 0.00 in/hr0.0 mm/hr 0.00 in0.0 mm
05:15 AM 51.7°F10.9°C 41.8°F5.4°C 69% 1.6 mph SW2.6 kmh SW 2.0 mph3.2 kmh 30.06 in1017.9 mb 0.00 in0.0 mm 0.00 in/hr0.0 mm/hr 0.00 in0.0 mm
05:00 AM 51.4°F10.8°C 41.9°F5.5°C 70% 5.8 mph SW9.3 kmh SW 8.0 mph12.9 kmh 30.07 in1018.3 mb 0.00 in0.0 mm 0.00 in/hr0.0 mm/hr 0.00 in0.0 mm
04:45 AM 51.6°F10.9°C 41.8°F5.4°C 69% 5.2 mph SW8.4 kmh SW 6.0 mph9.7 kmh 30.07 in1018.3 mb 0.00 in0.0 mm 0.00 in/hr0.0 mm/hr 0.00 in0.0 mm
04:30 AM 51.5°F10.8°C 42.0°F5.6°C 70% 5.0 mph SW8.0 kmh SW 9.0 mph14.5 kmh 30.07 in1018.3 mb 0.00 in0.0 mm 0.00 in/hr0.0 mm/hr 0.00 in0.0 mm
04:15 AM 52.2°F11.2°C 42.0°F5.6°C 68% 5.3 mph SW8.5 kmh SW 11.0 mph17.7 kmh 30.07 in1018.3 mb 0.00 in0.0 mm 0.00 in/hr0.0 mm/hr 0.00 in0.0 mm
04:00 AM 53.2°F11.8°C 41.7°F5.4°C 65% 8.8 mph W14.2 kmh W 13.0 mph20.9 kmh 30.07 in1018.3 mb 0.00 in0.0 mm 0.00 in/hr0.0 mm/hr 0.00 in0.0 mm
03:45 AM 53.4°F11.9°C 42.3°F5.7°C 66% 8.2 mph WSW13.2 kmh WSW 13.0 mph20.9 kmh 30.07 in1018.3 mb 0.00 in0.0 mm 0.00 in/hr0.0 mm/hr 0.00 in0.0 mm
03:30 AM 52.3°F11.3°C 42.4°F5.8°C 69% 9.2 mph WSW14.8 kmh WSW 11.0 mph17.7 kmh 30.08 in1018.6 mb 0.00 in0.0 mm 0.00 in/hr0.0 mm/hr 0.00 in0.0 mm
03:15 AM 51.7°F10.9°C 43.3°F6.3°C 73% 1.9 mph SW3.1 kmh SW 3.0 mph4.8 kmh 30.08 in1018.6 mb 0.00 in0.0 mm 0.00 in/hr0.0 mm/hr 0.00 in0.0 mm
03:00 AM 51.4°F10.8°C 43.0°F6.1°C 73% 2.4 mph SW3.9 kmh SW 4.0 mph6.4 kmh 30.08 in1018.6 mb 0.00 in0.0 mm 0.00 in/hr0.0 mm/hr 0.00 in0.0 mm
02:45 AM 51.2°F10.7°C 43.2°F6.2°C 74% 5.0 mph SW8.0 kmh SW 9.0 mph14.5 kmh 30.08 in1018.6 mb 0.00 in0.0 mm 0.00 in/hr0.0 mm/hr 0.00 in0.0 mm
02:30 AM 50.8°F10.4°C 42.8°F6.0°C 74% 3.7 mph SW6.0 kmh SW 6.0 mph9.7 kmh 30.08 in1018.6 mb 0.00 in0.0 mm 0.00 in/hr0.0 mm/hr 0.00 in0.0 mm
02:15 AM 50.9°F10.5°C 42.6°F5.9°C 73% 5.1 mph SW8.2 kmh SW 7.0 mph11.3 kmh 30.08 in1018.6 mb 0.00 in0.0 mm 0.00 in/hr0.0 mm/hr 0.00 in0.0 mm
02:00 AM 50.5°F10.3°C 42.5°F5.8°C 74% 5.4 mph SW8.7 kmh SW 10.0 mph16.1 kmh 30.09 in1019.0 mb 0.00 in0.0 mm 0.00 in/hr0.0 mm/hr 0.00 in0.0 mm
01:45 AM 49.2°F9.6°C 42.0°F5.6°C 76% 2.5 mph SW4.0 kmh SW 7.0 mph11.3 kmh 30.09 in1019.0 mb 0.00 in0.0 mm 0.00 in/hr0.0 mm/hr 0.00 in0.0 mm
01:30 AM 50.7°F10.4°C 42.3°F5.7°C 73% 1.6 mph SW2.6 kmh SW 4.0 mph6.4 kmh 30.09 in1019.0 mb 0.00 in0.0 mm 0.00 in/hr0.0 mm/hr 0.00 in0.0 mm
01:15 AM 51.3°F10.7°C 42.2°F5.7°C 71% 1.7 mph SSW2.7 kmh SSW 2.0 mph3.2 kmh 30.09 in1019.0 mb 0.00 in0.0 mm 0.00 in/hr0.0 mm/hr 0.00 in0.0 mm
01:00 AM 51.1°F10.6°C 42.0°F5.6°C 71% 3.9 mph SSW6.3 kmh SSW 5.0 mph8.0 kmh 30.09 in1019.0 mb 0.00 in0.0 mm 0.00 in/hr0.0 mm/hr 0.00 in0.0 mm
12:45 AM 51.1°F10.6°C 42.4°F5.8°C 72% 5.4 mph SSW8.7 kmh SSW 6.0 mph9.7 kmh 30.10 in1019.3 mb 0.00 in0.0 mm 0.00 in/hr0.0 mm/hr 0.00 in0.0 mm
12:30 AM 51.6°F10.9°C 42.5°F5.8°C 71% 9.0 mph SSW14.5 kmh SSW 12.0 mph19.3 kmh 30.10 in1019.3 mb 0.00 in0.0 mm 0.00 in/hr0.0 mm/hr 0.00 in0.0 mm
12:15 AM 48.9°F9.4°C 42.4°F5.8°C 78% 8.5 mph SSW13.7 kmh SSW 14.0 mph22.5 kmh 30.11 in1019.6 mb 0.00 in0.0 mm 0.00 in/hr0.0 mm/hr 0.00 in0.0 mm
12:00 AM 47.2°F8.4°C 40.4°F4.7°C 77% 0.3 mph SW0.5 kmh SW 2.0 mph3.2 kmh 30.12 in1020.0 mb 0.00 in0.0 mm 0.00 in/hr0.0 mm/hr 0.00 in0.0 mm